メインページ
METAR-TAF:

METAR-TAF

空港 :

Cranbrook, ブリティッシュコロンビア州, カナダ

緯度: 49-37N, 経度: 115-47W, 海抜: 939m

現時点の気象観測

当レポートは22分前の11:00(UTC)に作成
南/南西の風 10kt
気温 17°C
湿度 45%
気圧 1006 hPa
視程: 40.2km
高度6000ftの雲はほとんどない, 積乱雲.
高度11000ftの雲は散在している

METAR: CYXC 191100Z 20010KT 25SM FEW060CB SCT110 17/05 A2971 RMK CB1AC2 SLP041 DENSITY ALT 4300FT

時間: 05:22 (11:22 UTC)

予報

当レポートは4時間44分前の06:38(UTC)に作成
予報は19日の 07時(UTC)から 19日の 19時(UTC)まで有効
南/南西の風 6kt
視程: 10km
高度7000ftの雲はほとんどない
高度22000ftの千切れ雲あり
19日の 1200時(UTC)から
西/北西の風 10kt、最大20ktの突風を伴う
視程: 10km
高度7000ftの雲は散在している
19日の 12時(UTC)から 19日の 19時(UTC)まで一時的に
視程: 10km
高度7000ftの千切れ雲あり
弱いにわか雨

TAF: CYXC 190638Z 1907/1919 21006KT P6SM FEW070 BKN220 FM191200 29010G20KT P6SM SCT070 TEMPO 1912/1919 P6SM -SHRA BKN070 RMK NXT FCST BY 191300Z

4,000以上の空港の気象観測と天気予報(METAR報とTAF報)

利用可能な観測所は地図上に黄色い丸と赤い丸で示す。

丸の上にカーソルを重ねると観測所名を参照できる。

次にクリックすると気象観測と天気予報を参照できる。

マップの切り替え:黒色「×」印の緑ボタンをクリックして拡大、「-」印の緑ボタンをクリックして縮小、緑色の三角印をクリックして隣りの地図に切り替え


METAR-TAF: